Aérodrome :
LOGIN :

S'inscrire | Disclaimer

   EN    FR    IT 

 










Légende :    VFR   VFR Marginal   IFR   IFR Intensif   IFR Très Intensif
Visi : 
Plafond : 
>= 8 km
>= 3000ft
5 à 8 km
1000 à 3000 ft
1500m à 5 km
500 à 1000 ft
800 à 1500m
200 à 500 ft
< 800m
< 200 ft
Symboles :   Orages  Brouillard  Fortes neiges  Fortes précipitations  Vent > 20 kt
SIGMETs :   Divers  Orages  Givrage  Turbulence  Onde Orograph.  Cendres Volcan.







- Altitude de l'aérodrome : 22 ft
- Code IATA : TUN


DTTA - Tunis Carthage

DERNIER METAR :
  • 231330Z 28014G24KT 240V330 CAVOK 34/13 Q1013 NOSIG

METARs EXPIRÉS :
  • 231300Z VRB09KT CAVOK 33/17 Q1014 NOSIG
  • 231230Z VRB07KT CAVOK 33/15 Q1014 NOSIG
  • 231200Z VRB05KT CAVOK 34/12 Q1014 NOSIG
  • 231130Z 29011G24KT 250V310 CAVOK 34/12 Q1014 NOSIG
  • 231100Z 29010KT 260V340 CAVOK 34/12 Q1015 NOSIG

TAF TAF DTTA
Valide du 23 à 12h jusqu'au 24 à 12h UTC


231100Z 2312/2412 31010KT CAVOK
BECMG 2320/2322 VRB03KT
BECMG 2410/2412 36010KT
Pas de NOTAMs connus pour ce terrain.



MET'MAP, la Météo Aéronautique d'un coup d'oeil ! - Copyright ORBIFLY Décembre 2007 - Disclaimer

ORBIFLY MET'MAP TEAM :

Programmation & Développement : Alexandra Zaïnal
Conception & Développement : Baudouin d'Aumeries
Co-Programmation & Développement : Marc-Olivier Méhu
Soutien technique & logistique : Manuel Goepfert

Contact : metmap@orbifly.com




SOURCES & CREDITS :

   NOAA